.
WxDataArchive / Data Records for 2011-01-26
2011-01-25 January 2011 2011-01-27

Data Records for Wednesday, 26 January 2011

Time	Temp	Chill	HIndex	Humid	Dewpt	 Wind 	HiWind	WindDir	Rain 	Barom 
-----	----	-----	------	-----	-----	------	------	-------	-----	----- 
00:00	22.5	22.5	22.5	88	19.5	0	1	90	0.00	30.067 
00:05	22.5	22.5	22.5	88	19.5	0	2	90	0.00	30.067 
00:10	22.5	22.5	22.5	88	19.5	0	2	90	0.00	30.067 
00:15	22.5	22.5	22.5	88	19.5	0	1	90	0.00	30.056 
00:20	22.4	22.4	22.4	88	19.4	0	0	---	0.00	30.056 
00:25	22.4	22.4	22.4	88	19.4	0	0	---	0.00	30.056 
00:30	22.4	22.4	22.4	88	19.4	0	0	---	0.00	30.055 
00:35	22.4	22.4	22.4	88	19.4	0	0	---	0.00	30.055 
00:40	22.4	22.4	22.4	88	19.4	0	0	---	0.00	30.055 
00:45	22.5	22.5	22.5	89	19.8	0	0	---	0.00	30.060 
00:50	22.5	22.5	22.5	89	19.8	0	0	---	0.00	30.060 
00:55	22.5	22.5	22.5	89	19.8	0	0	---	0.00	30.060 
01:00	22.5	22.5	22.5	89	19.8	0	0	---	0.00	30.052 
01:05	22.5	22.5	22.5	89	19.8	0	0	---	0.00	30.052 
01:10	22.5	22.5	22.5	89	19.8	0	0	---	0.00	30.052 
01:15	22.7	22.7	22.7	89	20.0	0	0	---	0.00	30.052 
01:20	22.7	22.7	22.7	89	20.0	0	0	---	0.00	30.052 
01:25	22.7	22.7	22.7	89	20.0	0	1	90	0.00	30.052 
01:30	22.7	22.7	22.7	89	20.0	0	1	90	0.00	30.044 
01:35	22.7	22.7	22.7	89	20.0	0	1	90	0.00	30.044 
01:40	22.7	22.7	22.7	89	20.0	0	1	90	0.00	30.044 
01:45	22.7	22.7	22.7	89	20.0	0	0	---	0.00	30.039 
01:50	22.7	22.7	22.7	89	20.0	0	0	---	0.00	30.039 
01:55	22.7	22.7	22.7	89	20.0	0	0	---	0.00	30.039 
02:00	22.7	22.7	22.7	89	20.0	0	0	---	0.00	30.036 
02:05	22.7	22.7	22.7	89	20.0	0	1	90	0.00	30.036 
02:10	22.7	22.7	22.7	89	20.0	0	0	---	0.00	30.036 
02:15	22.7	22.7	22.7	89	20.0	0	0	---	0.00	30.035 
02:20	22.7	22.7	22.7	89	20.0	0	0	---	0.00	30.035 
02:25	22.7	22.7	22.7	89	20.0	0	0	---	0.00	30.035 
02:30	22.7	22.7	22.7	89	20.0	0	0	---	0.00	30.035 
02:35	22.9	22.9	22.9	89	20.2	0	0	---	0.00	30.035 
02:40	22.9	22.9	22.9	89	20.2	0	1	90	0.00	30.035 
02:45	22.7	22.7	22.7	89	20.0	0	0	---	0.00	30.031 
02:50	22.7	22.7	22.7	89	20.0	0	0	---	0.00	30.031 
02:55	22.9	22.9	22.9	90	20.4	0	1	90	0.00	30.031 
03:00	22.9	22.9	22.9	90	20.4	0	0	---	0.00	30.032 
03:05	22.9	22.9	22.9	90	20.4	0	0	---	0.00	30.032 
03:10	22.9	22.9	22.9	90	20.4	0	0	---	0.00	30.032 
03:15	22.9	22.9	22.9	90	20.4	0	0	---	0.00	30.037 
03:20	22.9	22.9	22.9	90	20.4	0	0	---	0.00	30.037 
03:25	22.9	22.9	22.9	90	20.4	0	0	---	0.00	30.037 
03:30	22.9	22.9	22.9	90	20.4	0	0	---	0.00	30.035 
03:35	23.0	23.0	23.0	90	20.5	0	0	---	0.00	30.035 
03:40	23.0	23.0	23.0	90	20.5	0	0	---	0.00	30.035 
03:45	23.0	23.0	23.0	90	20.5	0	0	---	0.00	30.035 
03:50	23.2	23.2	23.2	90	20.7	0	0	---	0.00	30.035 
03:55	23.2	23.2	23.2	90	20.7	0	1	90	0.00	30.035 
04:00	23.2	23.2	23.2	90	20.7	0	0	---	0.00	30.030 
04:05	23.3	23.3	23.3	90	20.8	0	1	90	0.00	30.030 
04:10	23.3	23.3	23.3	90	20.8	0	1	90	0.00	30.030 
04:15	23.3	23.3	23.3	90	20.8	0	1	90	0.00	30.025 
04:20	23.3	23.3	23.3	90	20.8	0	0	---	0.00	30.025 
04:25	23.5	23.5	23.5	90	21.0	0	1	90	0.00	30.025 
04:30	23.5	23.5	23.5	90	21.0	0	1	90	0.00	30.022 
04:35	23.5	23.5	23.5	90	21.0	0	0	---	0.00	30.022 
04:40	23.6	23.6	23.6	90	21.1	0	1	90	0.00	30.022 
04:45	23.6	23.6	23.6	90	21.1	0	1	90	0.00	30.020 
04:50	23.6	23.6	23.6	90	21.1	0	0	---	0.00	30.020 
04:55	23.6	23.6	23.6	90	21.1	0	0	---	0.00	30.020 
05:00	23.6	23.6	23.6	90	21.1	0	1	90	0.00	30.016 
05:05	23.8	23.8	23.8	90	21.3	0	0	---	0.00	30.016 
05:10	23.8	23.8	23.8	90	21.3	0	1	90	0.00	30.016 
05:15	23.8	23.8	23.8	90	21.3	0	0	---	0.00	30.013 
05:20	23.9	23.9	23.9	90	21.4	0	0	---	0.00	30.013 
05:25	23.9	23.9	23.9	90	21.4	0	0	---	0.00	30.013 
05:30	23.9	23.9	23.9	90	21.4	0	1	90	0.00	30.010 
05:35	23.9	23.9	23.9	90	21.4	0	1	90	0.00	30.010 
05:40	24.1	24.1	24.1	90	21.6	0	1	90	0.00	30.010 
05:45	24.1	24.1	24.1	90	21.6	0	1	90	0.00	30.008 
05:50	24.1	24.1	24.1	90	21.6	0	0	---	0.00	30.008 
05:55	24.1	24.1	24.1	90	21.6	0	0	---	0.00	30.008 
06:00	24.1	24.1	24.1	90	21.6	0	0	---	0.00	30.007 
06:05	24.1	24.1	24.1	90	21.6	0	0	---	0.00	30.007 
06:10	24.1	24.1	24.1	90	21.6	0	0	---	0.00	30.007 
06:15	24.1	24.1	24.1	90	21.6	0	0	---	0.00	30.006 
06:20	24.1	24.1	24.1	90	21.6	0	0	---	0.00	30.006 
06:25	24.1	24.1	24.1	90	21.6	0	0	---	0.00	30.006 
06:30	24.1	24.1	24.1	90	21.6	0	0	---	0.00	30.004 
06:35	24.1	24.1	24.1	90	21.6	0	1	90	0.00	30.004 
06:40	24.1	24.1	24.1	90	21.6	0	0	---	0.00	30.004 
06:45	24.2	24.2	24.2	90	21.7	0	0	---	0.00	29.994 
06:50	24.2	24.2	24.2	90	21.7	0	0	---	0.00	29.994 
06:55	24.2	24.2	24.2	90	21.7	0	0	---	0.00	29.994 
07:00	24.2	24.2	24.2	90	21.7	0	0	---	0.00	29.991 
07:05	24.2	24.2	24.2	90	21.7	0	3	90	0.00	29.991 
07:10	24.2	24.2	24.2	90	21.7	0	3	90	0.00	29.991 
07:15	24.2	24.2	24.2	90	21.7	0	1	90	0.00	29.991 
07:20	24.2	24.2	24.2	90	21.7	0	0	---	0.00	29.991 
07:25	24.2	24.2	24.2	90	21.7	0	0	---	0.00	29.991 
07:30	24.2	24.2	24.2	90	21.7	0	0	---	0.00	29.992 
07:35	24.2	24.2	24.2	90	21.7	0	0	---	0.00	29.992 
07:40	24.4	24.4	24.4	90	21.9	0	1	90	0.00	29.992 
07:45	24.4	24.4	24.4	90	21.9	0	1	90	0.00	29.993 
07:50	24.4	24.4	24.4	90	21.9	0	1	90	0.00	29.993 
07:55	24.4	24.4	24.4	90	21.9	0	0	---	0.00	29.993 
08:00	24.4	24.4	24.4	90	21.9	0	0	---	0.00	29.999 
08:05	24.4	24.4	24.4	90	21.9	0	1	90	0.00	29.999 
08:10	24.4	24.4	24.4	90	21.9	0	0	---	0.00	29.999 
08:15	24.4	24.4	24.4	90	21.9	0	0	---	0.00	30.004 
08:20	24.5	24.5	24.5	90	22.0	0	0	---	0.00	30.004 
08:25	24.5	24.5	24.5	90	22.0	0	1	90	0.00	30.004 
08:30	24.5	24.5	24.5	90	22.0	0	0	---	0.00	30.007 
08:35	24.5	24.5	24.5	90	22.0	0	0	---	0.00	30.007 
08:40	24.5	24.5	24.5	90	22.0	0	0	---	0.00	30.007 
08:45	24.7	24.7	24.7	90	22.2	0	0	---	0.00	30.011 
08:50	24.7	24.7	24.7	90	22.2	0	0	---	0.00	30.011 
08:55	24.7	24.7	24.7	89	21.9	0	0	---	0.00	30.011 
09:00	24.8	24.8	24.8	89	22.0	0	0	---	0.00	30.012 
09:05	24.8	24.8	24.8	89	22.0	0	0	---	0.00	30.012 
09:10	25.0	25.0	25.0	89	22.2	0	1	90	0.00	30.012 
09:15	25.1	25.1	25.1	89	22.3	0	0	---	0.00	30.015 
09:20	25.1	25.1	25.1	89	22.3	0	0	---	0.00	30.015 
09:25	25.3	25.3	25.3	89	22.5	0	0	---	0.00	30.015 
09:30	25.3	25.3	25.3	89	22.5	0	1	90	0.00	30.016 
09:35	25.4	25.4	25.4	88	22.4	0	0	---	0.00	30.016 
09:40	25.4	25.4	25.4	88	22.4	0	0	---	0.00	30.016 
09:45	25.6	25.6	25.6	88	22.5	0	0	---	0.00	30.017 
09:50	25.7	25.7	25.7	88	22.6	0	0	---	0.00	30.017 
09:55	25.8	25.8	25.8	88	22.7	0	0	---	0.00	30.017 
10:00	26.0	26.0	26.0	88	22.9	0	0	---	0.00	30.009 
10:05	25.8	25.8	25.8	87	22.5	0	0	---	0.00	30.009 
10:10	25.8	25.8	25.8	87	22.5	0	2	90	0.00	30.009 
10:15	25.8	25.8	25.8	87	22.5	0	2	90	0.00	30.018 
10:20	26.0	26.0	26.0	87	22.7	0	0	---	0.00	30.018 
10:25	26.0	26.0	26.0	86	22.4	0	1	90	0.00	30.018 
10:30	26.1	26.1	26.1	86	22.5	0	0	---	0.00	30.015 
10:35	26.1	26.1	26.1	86	22.5	0	2	90	0.00	30.015 
10:40	26.3	26.3	26.3	86	22.7	0	0	---	0.00	30.015 
10:45	26.4	26.4	26.4	86	22.8	0	1	90	0.00	30.017 
10:50	26.3	26.3	26.3	85	22.4	0	2	90	0.00	30.017 
10:55	26.3	26.3	26.3	85	22.4	0	1	90	0.00	30.017 
11:00	26.3	26.3	26.3	85	22.4	0	2	90	0.00	30.016 
11:05	26.3	26.3	26.3	85	22.4	1	4	90	0.00	30.016 
11:10	26.4	26.4	26.4	86	22.8	0	1	248	0.00	30.016 
11:15	26.6	26.6	26.6	86	23.0	0	2	248	0.00	30.015 
11:20	26.7	26.7	26.7	85	22.8	0	2	248	0.00	30.015 
11:25	26.7	26.7	26.7	85	22.8	0	2	248	0.00	30.015 
11:30	26.7	26.7	26.7	85	22.8	0	2	248	0.00	30.010 
11:35	26.9	26.9	26.9	85	23.0	0	1	248	0.00	30.010 
11:40	27.0	27.0	27.0	85	23.1	0	1	248	0.00	30.010 
11:45	27.0	27.0	27.0	85	23.1	0	2	248	0.00	30.009 
11:50	27.3	27.3	27.3	85	23.4	0	1	248	0.00	30.009 
11:55	27.3	27.3	27.3	84	23.1	1	2	248	0.00	30.009 
12:00	27.5	27.5	27.5	84	23.3	1	2	248	0.00	30.005 
12:05	27.5	27.5	27.5	84	23.3	1	3	248	0.00	30.005 
12:10	27.5	27.5	27.5	83	23.0	1	3	248	0.00	30.005 
12:15	27.5	27.5	27.5	83	23.0	1	2	248	0.00	29.999 
12:20	27.6	27.6	27.6	83	23.1	1	3	248	0.00	29.999 
12:25	27.6	27.6	27.6	83	23.1	1	3	248	0.00	29.999 
12:30	27.6	27.6	27.6	82	22.8	1	3	338	0.00	29.994 
12:35	27.8	27.8	27.8	82	23.0	1	3	270	0.00	29.994 
12:40	27.8	27.8	27.8	82	23.0	1	3	315	0.00	29.994 
12:45	27.8	27.8	27.8	82	23.0	1	3	338	0.00	29.990 
12:50	27.8	27.8	27.8	82	23.0	1	4	338	0.00	29.990 
12:55	28.1	28.1	28.1	82	23.3	0	1	338	0.00	29.990 
13:00	28.2	28.2	28.2	81	23.1	1	2	338	0.00	29.989 
13:05	28.2	28.2	28.2	81	23.1	1	2	338	0.00	29.989 
13:10	28.4	28.4	28.4	81	23.3	1	2	338	0.00	29.989 
13:15	28.5	28.5	28.5	81	23.4	0	2	338	0.00	29.984 
13:20	28.5	28.5	28.5	80	23.1	1	2	338	0.00	29.984 
13:25	28.7	28.7	28.7	80	23.3	0	2	338	0.00	29.984 
13:30	28.8	28.8	28.8	79	23.1	1	3	338	0.00	29.976 
13:35	28.8	28.8	28.8	78	22.8	1	3	338	0.00	29.976 
13:40	28.8	28.8	28.8	78	22.8	1	4	338	0.00	29.976 
13:45	29.0	29.0	29.0	78	23.0	1	2	338	0.00	29.973 
13:50	29.0	29.0	29.0	78	23.0	1	4	270	0.00	29.973 
13:55	29.0	29.0	29.0	78	23.0	1	3	270	0.00	29.973 
14:00	29.0	29.0	29.0	78	23.0	0	2	22	0.00	29.972 
14:05	29.0	29.0	29.0	77	22.7	0	2	338	0.00	29.972 
14:10	29.1	29.1	29.1	78	23.1	0	2	338	0.00	29.972 
14:15	29.3	29.3	29.3	77	23.0	0	2	338	0.00	29.972 
14:20	29.4	29.4	29.4	77	23.1	0	2	338	0.00	29.972 
14:25	29.4	29.4	29.4	76	22.8	1	2	338	0.00	29.972 
14:30	29.4	29.4	29.4	76	22.8	0	2	338	0.00	29.972 
14:35	29.4	29.4	29.4	76	22.8	0	2	338	0.00	29.972 
14:40	29.4	29.4	29.4	76	22.8	1	5	270	0.00	29.972 
14:45	29.3	29.3	29.3	76	22.7	1	3	270	0.01	29.972 
14:50	29.3	29.3	29.3	77	23.0	1	4	315	0.00	29.972 
14:55	29.3	29.3	29.3	77	23.0	1	2	292	0.00	29.972 
15:00	29.3	29.3	29.3	77	23.0	0	3	292	0.00	29.979 
15:05	29.3	29.3	29.3	77	23.0	1	3	292	0.00	29.979 
15:10	29.3	29.3	29.3	77	23.0	1	3	270	0.00	29.979 
15:15	29.3	29.3	29.3	77	23.0	1	4	270	0.00	29.979 
15:20	29.3	29.3	29.3	77	23.0	0	2	270	0.00	29.979 
15:25	29.3	29.3	29.3	77	23.0	0	2	315	0.00	29.979 
15:30	29.3	29.3	29.3	78	23.3	0	4	270	0.00	29.984 
15:35	29.3	29.3	29.3	77	23.0	1	3	315	0.00	29.984 
15:40	29.1	29.1	29.1	77	22.8	2	7	338	0.00	29.984 
15:45	29.0	29.0	29.0	77	22.7	1	6	270	0.00	29.985 
15:50	29.0	29.0	29.0	77	22.7	1	4	338	0.00	29.985 
15:55	29.0	29.0	29.0	78	23.0	0	3	270	0.00	29.985 
16:00	29.0	29.0	29.0	78	23.0	1	3	270	0.00	29.987 
16:05	29.0	29.0	29.0	78	23.0	1	3	270	0.00	29.987 
16:10	29.0	29.0	29.0	79	23.3	1	3	270	0.00	29.987 
16:15	29.0	29.0	29.0	78	23.0	1	3	270	0.00	29.990 
16:20	29.0	29.0	29.0	78	23.0	1	4	270	0.00	29.990 
16:25	29.0	29.0	29.0	78	23.0	1	3	0	0.00	29.990 
16:30	29.0	29.0	29.0	78	23.0	1	3	292	0.00	29.997 
16:35	29.0	29.0	29.0	78	23.0	1	3	292	0.00	29.997 
16:40	29.0	29.0	29.0	78	23.0	1	3	315	0.00	29.997 
16:45	29.0	29.0	29.0	78	23.0	1	3	292	0.00	30.003 
16:50	29.0	29.0	29.0	78	23.0	1	3	338	0.00	30.003 
16:55	29.0	29.0	29.0	78	23.0	1	4	292	0.00	30.003 
17:00	29.0	29.0	29.0	78	23.0	1	4	292	0.00	30.010 
17:05	28.8	28.8	28.8	78	22.8	1	4	338	0.00	30.010 
17:10	28.8	28.8	28.8	78	22.8	1	4	338	0.00	30.010 
17:15	28.7	28.7	28.7	78	22.7	2	4	338	0.00	30.015 
17:20	28.7	28.7	28.7	78	22.7	0	2	315	0.00	30.015 
17:25	28.7	28.7	28.7	78	22.7	1	3	248	0.00	30.015 
17:30	28.5	28.5	28.5	78	22.5	0	2	248	0.00	30.014 
17:35	28.5	28.5	28.5	78	22.5	0	3	248	0.00	30.014 
17:40	28.4	28.4	28.4	77	22.1	0	2	338	0.00	30.014 
17:45	28.4	28.4	28.4	77	22.1	1	5	270	0.00	30.017 
17:50	28.4	28.4	28.4	77	22.1	0	2	270	0.00	30.017 
17:55	28.4	28.4	28.4	77	22.1	0	1	270	0.00	30.017 
18:00	28.4	28.4	28.4	77	22.1	0	3	270	0.00	30.019 
18:05	28.4	28.4	28.4	78	22.4	1	2	270	0.00	30.019 
18:10	28.4	28.4	28.4	78	22.4	0	2	338	0.00	30.019 
18:15	28.4	28.4	28.4	78	22.4	0	2	338	0.00	30.021 
18:20	28.4	28.4	28.4	78	22.4	0	2	338	0.00	30.021 
18:25	28.2	28.2	28.2	78	22.2	0	2	338	0.00	30.021 
18:30	28.2	28.2	28.2	77	21.9	1	4	270	0.00	30.020 
18:35	28.2	28.2	28.2	77	21.9	1	4	270	0.00	30.020 
18:40	28.2	28.2	28.2	77	21.9	0	2	338	0.00	30.020 
18:45	28.1	28.1	28.1	77	21.8	1	3	270	0.00	30.023 
18:50	28.1	28.1	28.1	77	21.8	1	4	248	0.00	30.023 
18:55	28.1	28.1	28.1	77	21.8	1	3	315	0.00	30.023 
19:00	28.1	28.1	28.1	77	21.8	0	2	270	0.00	30.032 
19:05	28.1	28.1	28.1	77	21.8	0	2	315	0.00	30.032 
19:10	28.1	28.1	28.1	77	21.8	0	0	---	0.00	30.032 
19:15	28.1	28.1	28.1	77	21.8	0	2	315	0.00	30.032 
19:20	28.1	28.1	28.1	78	22.1	0	1	315	0.00	30.032 
19:25	28.1	28.1	28.1	78	22.1	0	3	338	0.00	30.032 
19:30	28.1	28.1	28.1	78	22.1	0	2	338	0.00	30.035 
19:35	28.1	28.1	28.1	78	22.1	0	2	338	0.00	30.035 
19:40	28.1	28.1	28.1	78	22.1	1	4	270	0.00	30.035 
19:45	27.9	27.9	27.9	78	21.9	1	3	270	0.00	30.033 
19:50	27.9	27.9	27.9	78	21.9	0	3	338	0.00	30.033 
19:55	27.9	27.9	27.9	78	21.9	0	2	338	0.00	30.033 
20:00	27.9	27.9	27.9	77	21.6	1	2	270	0.00	30.036 
20:05	27.9	27.9	27.9	77	21.6	1	2	270	0.00	30.036 
20:10	27.9	27.9	27.9	77	21.6	1	2	338	0.00	30.036 
20:15	27.8	27.8	27.8	77	21.5	1	3	338	0.00	30.042 
20:20	27.9	27.9	27.9	77	21.6	1	2	270	0.00	30.042 
20:25	27.9	27.9	27.9	77	21.6	1	4	225	0.00	30.042 
20:30	27.8	27.8	27.8	77	21.5	1	3	270	0.00	30.046 
20:35	27.8	27.8	27.8	77	21.5	1	3	225	0.00	30.046 
20:40	27.8	27.8	27.8	77	21.5	1	5	225	0.00	30.046 
20:45	27.8	27.8	27.8	77	21.5	1	3	315	0.00	30.051 
20:50	27.8	27.8	27.8	77	21.5	1	3	248	0.00	30.051 
20:55	27.6	27.6	27.6	78	21.7	1	3	248	0.00	30.051 
21:00	27.6	27.6	27.6	78	21.7	0	2	315	0.00	30.045 
21:05	27.6	27.6	27.6	78	21.7	0	1	315	0.00	30.045 
21:10	27.5	27.5	27.5	78	21.6	0	3	270	0.00	30.045 
21:15	27.5	27.5	27.5	79	21.9	0	1	292	0.00	30.032 
21:20	27.5	27.5	27.5	79	21.9	0	1	292	0.00	30.032 
21:25	27.3	27.3	27.3	79	21.7	0	2	292	0.00	30.032 
21:30	27.3	27.3	27.3	79	21.7	0	3	292	0.00	30.029 
21:35	27.3	27.3	27.3	79	21.7	0	2	248	0.00	30.029 
21:40	27.3	27.3	27.3	79	21.7	0	1	248	0.00	30.029 
21:45	27.2	27.2	27.2	79	21.6	0	1	248	0.00	30.034 
21:50	27.2	27.2	27.2	79	21.6	0	2	248	0.00	30.034 
21:55	27.2	27.2	27.2	79	21.6	0	2	248	0.00	30.034 
22:00	27.2	27.2	27.2	79	21.6	0	2	248	0.00	30.030 
22:05	27.0	27.0	27.0	80	21.7	0	2	248	0.00	30.030 
22:10	27.0	27.0	27.0	80	21.7	0	3	248	0.00	30.030 
22:15	27.0	27.0	27.0	80	21.7	0	1	248	0.00	30.033 
22:20	27.0	27.0	27.0	80	21.7	0	1	248	0.00	30.033 
22:25	26.9	26.9	26.9	80	21.6	1	3	248	0.00	30.033 
22:30	26.9	26.9	26.9	80	21.6	0	2	248	0.00	30.026 
22:35	26.9	26.9	26.9	80	21.6	0	2	248	0.00	30.026 
22:40	26.9	26.9	26.9	80	21.6	0	2	248	0.00	30.026 
22:45	26.7	26.7	26.7	80	21.4	0	2	248	0.00	30.028 
22:50	26.7	26.7	26.7	81	21.7	0	2	248	0.00	30.028 
22:55	26.7	26.7	26.7	81	21.7	0	3	248	0.00	30.028 
23:00	26.7	26.7	26.7	81	21.7	1	3	248	0.00	30.028 
23:05	26.6	26.6	26.6	81	21.6	1	4	248	0.00	30.028 
23:10	26.6	26.6	26.6	80	21.3	1	5	248	0.00	30.028 
23:15	26.6	26.6	26.6	80	21.3	1	3	248	0.00	30.025 
23:20	26.6	26.6	26.6	80	21.3	1	3	248	0.00	30.025 
23:25	26.6	26.6	26.6	80	21.3	1	3	248	0.00	30.025 
23:30	26.4	26.4	26.4	80	21.1	1	4	248	0.00	30.031 
23:35	26.4	26.4	26.4	80	21.1	1	3	248	0.00	30.031 
23:40	26.3	26.3	26.3	80	21.0	1	3	248	0.00	30.031 
23:45	26.3	26.3	26.3	80	21.0	0	2	248	0.00	30.032 
23:50	26.1	26.1	26.1	80	20.8	1	3	248	0.00	30.032 
23:55	26.0	26.0	26.0	80	20.7	1	3	248	0.00	30.032 

CoCoRaHS
IN-AL-39
A2 Web Hosting
Creative Commons License
GoDaddy
search engine by freefind advanced

loaded 2018-11-13 21:22:48 • last modified 2010-11-18 10:43:29
Privacy PolicyDisclaimer
• wx.awcolley.com is powered by PmWiki v.2002016 •
• all content (unless otherwise noted) © 2018 A W Colley